Terminal Aerodrome Forecast
Issued by NWS

Home | Current Version | Previous Version | Text Only | Print | Product List | Glossary On
Versions: 1 2 3 4 5 6 7 8 9 10 11 12 13 14 15 16 17 18 19 20 21 22 23 24 25 26 27 28 29
944
FTUS43 KLOT 270954 AAC
TAFORD
TAF AMD
KORD 270954Z 2710/2812 03005KT 6SM BR SCT006 BKN025
     FM271400 08006KT P6SM SCT020 SCT150
     FM271900 08010KT P6SM FEW040 SCT250
     FM280200 10005KT P6SM SCT080 BKN200
     FM280800 08005KT 6SM SHRA OVC030 PROB30 2809/2811 4SM TSRA
      OVC015CB=

USA.gov is the U.S. government's official web portal to all federal, state and local government web resources and services.